Time;durP1;ratioP1;P1;durP2;ratioP2;P2;SDS_P1;SDS_P2;PMS_P1;PMS_P2;Temp;Humidity;BMP_temperature;BMP_pressure;BME280_temperature;BME280_humidity;BME280_pressure;Samples;Min_cycle;Max_cycle;Signal;HPM_P1;HPM_P2
2023/07/13 00:01:50;;;;;;;9.95;8.93;;;;;;;;;;5044069;28;20041;-73
2023/07/13 00:04:18;;;;;;;10.57;9.40;;;;;;;;;;5044372;28;20029;-73
2023/07/13 00:06:45;;;;;;;9.15;8.55;;;;;;;;;;5043836;28;20039;-74
2023/07/13 00:09:13;;;;;;;10.40;9.35;;;;;;;;;;5045085;28;20463;-73
2023/07/13 00:11:39;;;;;;;9.52;8.88;;;;;;;;;;5045152;28;20493;-74
2023/07/13 00:14:05;;;;;;;9.70;8.98;;;;;;;;;;5045781;28;20131;-73
2023/07/13 00:16:31;;;;;;;9.73;9.10;;;;;;;;;;5045977;28;20045;-73
2023/07/13 00:18:56;;;;;;;9.52;8.93;;;;;;;;;;5045467;28;20120;-74
2023/07/13 00:21:22;;;;;;;10.05;9.45;;;;;;;;;;5063067;28;20059;-73
2023/07/13 00:23:48;;;;;;;9.70;8.98;;;;;;;;;;5068013;28;20073;-73
2023/07/13 00:26:14;;;;;;;9.43;8.82;;;;;;;;;;5060865;28;20040;-73
2023/07/13 00:28:41;;;;;;;9.68;9.07;;;;;;;;;;5044959;28;20048;-73
2023/07/13 00:31:08;;;;;;;9.85;9.20;;;;;;;;;;5042466;28;20033;-73
2023/07/13 00:33:34;;;;;;;9.57;8.68;;;;;;;;;;5043564;28;20122;-73
2023/07/13 00:36:00;;;;;;;9.93;9.10;;;;;;;;;;5043960;28;20527;-73
2023/07/13 00:38:26;;;;;;;9.45;8.80;;;;;;;;;;5043331;28;20090;-74
2023/07/13 00:40:51;;;;;;;9.88;8.93;;;;;;;;;;5042546;28;20415;-74
2023/07/13 00:43:20;;;;;;;9.93;9.20;;;;;;;;;;5044007;28;20032;-73
2023/07/13 00:45:45;;;;;;;9.70;8.77;;;;;;;;;;5049033;28;20068;-74
2023/07/13 00:48:16;;;;;;;9.43;8.73;;;;;;;;;;5045260;28;20497;-73
2023/07/13 00:50:43;;;;;;;9.40;8.60;;;;;;;;;;5047500;28;20049;-73
2023/07/13 00:53:09;;;;;;;9.65;8.95;;;;;;;;;;5047181;28;20048;-73
2023/07/13 00:55:35;;;;;;;10.25;9.35;;;;;;;;;;5046577;28;20037;-74
2023/07/13 00:58:02;;;;;;;9.50;8.60;;;;;;;;;;5046580;28;20041;-73
2023/07/13 01:00:29;;;;;;;9.77;9.10;;;;;;;;;;5047322;28;20047;-73
2023/07/13 01:02:55;;;;;;;10.35;9.50;;;;;;;;;;5047232;28;20033;-73
2023/07/13 01:05:22;;;;;;;9.93;9.15;;;;;;;;;;5046983;28;20404;-73
2023/07/13 01:07:50;;;;;;;10.80;9.70;;;;;;;;;;5046083;28;20098;-73
2023/07/13 01:10:16;;;;;;;9.65;8.85;;;;;;;;;;5047935;28;20052;-73
2023/07/13 01:12:42;;;;;;;9.60;8.90;;;;;;;;;;5046550;28;20029;-74
2023/07/13 01:15:43;;;;;;;10.10;9.32;;;;;;;;;;5047062;28;20047;-73
2023/07/13 01:18:15;;;;;;;10.55;9.65;;;;;;;;;;5047795;28;20041;-73
2023/07/13 01:20:41;;;;;;;9.93;9.32;;;;;;;;;;5046666;28;20035;-73
2023/07/13 01:23:10;;;;;;;10.57;9.90;;;;;;;;;;5046491;28;20098;-73
2023/07/13 01:25:36;;;;;;;10.20;9.50;;;;;;;;;;5046361;28;20032;-73
2023/07/13 01:28:04;;;;;;;10.25;9.45;;;;;;;;;;5047590;28;20449;-73
2023/07/13 01:30:31;;;;;;;10.45;9.30;;;;;;;;;;5047324;28;20037;-73
2023/07/13 01:32:58;;;;;;;10.07;9.38;;;;;;;;;;5045621;28;20029;-73
2023/07/13 01:35:26;;;;;;;11.00;10.15;;;;;;;;;;5047133;28;20029;-73
2023/07/13 01:37:53;;;;;;;10.05;9.40;;;;;;;;;;5047380;28;20044;-73
2023/07/13 01:40:20;;;;;;;10.93;9.90;;;;;;;;;;5045770;28;20441;-74
2023/07/13 01:42:45;;;;;;;10.77;9.93;;;;;;;;;;5046749;28;20043;-73
2023/07/13 01:45:11;;;;;;;10.20;9.38;;;;;;;;;;5046927;28;20067;-73
2023/07/13 01:47:37;;;;;;;10.07;9.38;;;;;;;;;;5046518;28;20095;-73
2023/07/13 01:50:03;;;;;;;10.05;9.20;;;;;;;;;;5045887;28;20087;-73
2023/07/13 01:52:29;;;;;;;10.35;9.60;;;;;;;;;;5044227;28;20086;-73
2023/07/13 01:54:54;;;;;;;10.57;9.98;;;;;;;;;;5029267;28;20048;-73
2023/07/13 01:57:20;;;;;;;10.07;9.07;;;;;;;;;;5047594;28;20048;-73
2023/07/13 01:59:46;;;;;;;11.02;9.85;;;;;;;;;;5045798;28;20199;-73
2023/07/13 02:02:11;;;;;;;10.52;9.82;;;;;;;;;;5046995;28;20450;-73
2023/07/13 02:04:37;;;;;;;10.52;9.82;;;;;;;;;;5046253;28;20064;-73
2023/07/13 02:07:03;;;;;;;9.82;9.13;;;;;;;;;;5045452;28;20052;-73
2023/07/13 02:09:28;;;;;;;9.77;9.02;;;;;;;;;;5045093;28;20041;-73
2023/07/13 02:11:54;;;;;;;10.27;9.43;;;;;;;;;;5045399;28;20032;-73
2023/07/13 02:14:20;;;;;;;10.60;9.75;;;;;;;;;;5045506;28;20485;-73
2023/07/13 02:16:45;;;;;;;10.80;10.15;;;;;;;;;;5025234;28;20049;-74
2023/07/13 02:19:11;;;;;;;10.18;9.48;;;;;;;;;;5045360;28;20045;-73
2023/07/13 02:21:37;;;;;;;9.65;8.95;;;;;;;;;;5044886;28;20626;-73
2023/07/13 02:24:02;;;;;;;10.32;9.73;;;;;;;;;;5045157;28;20455;-74
2023/07/13 02:26:28;;;;;;;9.80;9.00;;;;;;;;;;5045982;28;20127;-73
2023/07/13 02:28:53;;;;;;;10.23;9.40;;;;;;;;;;5045847;28;20044;-73
2023/07/13 02:31:19;;;;;;;10.57;9.45;;;;;;;;;;5044615;28;20553;-73
2023/07/13 02:33:45;;;;;;;9.70;9.00;;;;;;;;;;5058869;28;20040;-73
2023/07/13 02:36:12;;;;;;;10.18;9.48;;;;;;;;;;5040179;28;20033;-74
2023/07/13 02:38:38;;;;;;;10.48;9.68;;;;;;;;;;5044032;28;20047;-74
2023/07/13 02:41:05;;;;;;;10.75;9.75;;;;;;;;;;5045905;28;20428;-74
2023/07/13 02:43:31;;;;;;;11.85;9.90;;;;;;;;;;5044738;28;20036;-74
2023/07/13 03:32:13;;;;;;;10.77;10.05;;;;;;;;;;5037367;28;20441;-72
2023/07/13 03:34:40;;;;;;;10.80;10.00;;;;;;;;;;5030209;28;20487;-72
2023/07/13 03:37:06;;;;;;;11.00;10.10;;;;;;;;;;5042674;28;20441;-72
2023/07/13 03:39:31;;;;;;;10.52;9.80;;;;;;;;;;5026737;28;20125;-72
2023/07/13 03:41:58;;;;;;;10.68;9.93;;;;;;;;;;5043745;28;20059;-72
2023/07/13 03:44:24;;;;;;;10.63;9.68;;;;;;;;;;5043660;28;20052;-72
2023/07/13 03:46:54;;;;;;;10.40;9.60;;;;;;;;;;5041960;28;20044;-72
2023/07/13 03:49:19;;;;;;;9.63;9.02;;;;;;;;;;5043303;28;20166;-72
2023/07/13 03:51:45;;;;;;;10.32;9.63;;;;;;;;;;5044151;28;20471;-72
2023/07/13 03:54:10;;;;;;;9.95;9.35;;;;;;;;;;5043351;28;20466;-72
2023/07/13 03:56:36;;;;;;;10.88;9.85;;;;;;;;;;5044613;28;20041;-72
2023/07/13 03:59:04;;;;;;;10.85;10.05;;;;;;;;;;5045488;28;20048;-72
2023/07/13 04:01:31;;;;;;;11.38;10.07;;;;;;;;;;5042018;28;20040;-72
2023/07/13 04:03:56;;;;;;;11.45;10.65;;;;;;;;;;5044267;28;20048;-72
2023/07/13 04:06:27;;;;;;;11.98;10.73;;;;;;;;;;5045336;28;20041;-72
2023/07/13 04:08:57;;;;;;;11.07;10.25;;;;;;;;;;5043399;28;20045;-72
2023/07/13 04:11:24;;;;;;;10.40;9.60;;;;;;;;;;5042060;28;20044;-72
2023/07/13 04:13:51;;;;;;;10.45;9.63;;;;;;;;;;5044042;28;20116;-72
2023/07/13 04:16:18;;;;;;;11.20;10.32;;;;;;;;;;5043561;28;20420;-72
2023/07/13 04:18:45;;;;;;;11.20;10.15;;;;;;;;;;5044227;28;20514;-72
2023/07/13 04:21:10;;;;;;;10.63;10.02;;;;;;;;;;5046633;28;20032;-72
2023/07/13 04:23:39;;;;;;;11.15;10.25;;;;;;;;;;5049708;28;20037;-72
2023/07/13 04:26:06;;;;;;;;;;;;;;;;;;5065349;28;20493;-72
2023/07/13 04:28:31;;;;;;;11.20;10.40;;;;;;;;;;5047256;28;20011;-73
2023/07/13 04:30:57;;;;;;;10.93;10.02;;;;;;;;;;5049318;28;20132;-72
2023/07/13 04:33:23;;;;;;;10.70;9.90;;;;;;;;;;5049249;28;20082;-72
2023/07/13 04:35:56;;;;;;;11.32;10.52;;;;;;;;;;5048775;28;20515;-72
2023/07/13 04:38:29;;;;;;;10.70;9.85;;;;;;;;;;5047014;28;20029;-72
2023/07/13 04:41:06;;;;;;;11.20;10.35;;;;;;;;;;5048885;28;20041;-72
2023/07/13 04:43:32;;;;;;;10.85;10.15;;;;;;;;;;5049060;28;20032;-72
2023/07/13 04:46:04;;;;;;;10.80;10.10;;;;;;;;;;5048061;28;20040;-72
2023/07/13 04:48:29;;;;;;;11.10;10.27;;;;;;;;;;5048725;28;20040;-72
2023/07/13 04:50:57;;;;;;;10.82;9.82;;;;;;;;;;5048879;28;20044;-72
2023/07/13 04:53:22;;;;;;;11.05;10.25;;;;;;;;;;5030735;28;20128;-72
2023/07/13 04:55:48;;;;;;;11.63;10.70;;;;;;;;;;5046993;28;20132;-72
2023/07/13 04:58:14;;;;;;;11.68;10.82;;;;;;;;;;5048917;28;20492;-72
2023/07/13 05:00:39;;;;;;;12.02;10.93;;;;;;;;;;5048599;28;20076;-72
2023/07/13 05:03:05;;;;;;;11.63;10.63;;;;;;;;;;5049010;28;20564;-72
2023/07/13 05:05:31;;;;;;;12.07;10.80;;;;;;;;;;5046611;28;20036;-72
2023/07/13 05:07:56;;;;;;;12.73;11.50;;;;;;;;;;5048229;28;20036;-72
2023/07/13 05:10:22;;;;;;;11.95;10.95;;;;;;;;;;5047558;28;20227;-72
2023/07/13 05:12:48;;;;;;;12.13;11.20;;;;;;;;;;5046778;28;20045;-72
2023/07/13 05:15:14;;;;;;;13.07;11.88;;;;;;;;;;5047875;28;20124;-72
2023/07/13 05:17:40;;;;;;;11.50;10.70;;;;;;;;;;5048103;28;20388;-72
2023/07/13 05:20:07;;;;;;;12.57;11.68;;;;;;;;;;5047613;28;20502;-72
2023/07/13 05:22:34;;;;;;;12.82;11.80;;;;;;;;;;5046345;28;20289;-72
2023/07/13 05:25:01;;;;;;;11.82;10.82;;;;;;;;;;5047808;28;20041;-72
2023/07/13 05:27:27;;;;;;;11.98;10.98;;;;;;;;;;5048028;28;20040;-72
2023/07/13 05:29:52;;;;;;;12.10;11.15;;;;;;;;;;5043871;28;20047;-72
2023/07/13 05:32:18;;;;;;;11.73;10.82;;;;;;;;;;5044916;28;20196;-72
2023/07/13 05:34:44;;;;;;;13.10;11.85;;;;;;;;;;5045363;28;20503;-72
2023/07/13 05:37:09;;;;;;;12.32;11.32;;;;;;;;;;5047773;28;20079;-73
2023/07/13 05:39:35;;;;;;;12.18;11.00;;;;;;;;;;5045873;28;20035;-72
2023/07/13 05:42:02;;;;;;;12.02;10.90;;;;;;;;;;5046069;28;20037;-72
2023/07/13 05:44:28;;;;;;;11.80;10.80;;;;;;;;;;5040270;28;20104;-72
2023/07/13 05:46:55;;;;;;;14.15;10.82;;;;;;;;;;5046954;28;20124;-72
2023/07/13 05:49:21;;;;;;;11.35;10.55;;;;;;;;;;5045681;28;20540;-72
2023/07/13 05:51:47;;;;;;;11.43;10.48;;;;;;;;;;5047182;28;20128;-72
2023/07/13 05:54:12;;;;;;;11.63;10.70;;;;;;;;;;5044198;28;20175;-72
2023/07/13 05:56:38;;;;;;;11.63;10.82;;;;;;;;;;5047659;28;20064;-73
2023/07/13 05:59:03;;;;;;;12.20;11.05;;;;;;;;;;5046688;28;20470;-72
2023/07/13 06:01:30;;;;;;;12.32;11.20;;;;;;;;;;5045571;28;20381;-72
2023/07/13 06:03:55;;;;;;;11.90;10.90;;;;;;;;;;5047124;28;20068;-72
2023/07/13 06:06:21;;;;;;;12.40;11.20;;;;;;;;;;5046906;28;20144;-73
2023/07/13 06:08:46;;;;;;;11.95;11.15;;;;;;;;;;5044634;28;20040;-72
2023/07/13 06:11:18;;;;;;;12.00;11.10;;;;;;;;;;5047104;28;20037;-72
2023/07/13 06:13:44;;;;;;;12.43;11.32;;;;;;;;;;5046939;28;20503;-72
2023/07/13 06:16:10;;;;;;;11.88;11.07;;;;;;;;;;5047128;28;20071;-72
2023/07/13 06:18:37;;;;;;;12.27;11.30;;;;;;;;;;5044135;28;20068;-72
2023/07/13 06:21:16;;;;;;;12.73;11.43;;;;;;;;;;5046634;28;20040;-73
2023/07/13 06:23:42;;;;;;;11.95;11.05;;;;;;;;;;5045107;28;20048;-73
2023/07/13 06:26:08;;;;;;;11.60;10.82;;;;;;;;;;5044648;28;20039;-72
2023/07/13 06:28:35;;;;;;;11.15;10.25;;;;;;;;;;5046236;28;20041;-72
2023/07/13 06:31:01;;;;;;;10.98;9.98;;;;;;;;;;5046623;28;20481;-72
2023/07/13 06:33:27;;;;;;;11.63;9.90;;;;;;;;;;5046855;28;20624;-72
2023/07/13 06:35:54;;;;;;;11.23;9.82;;;;;;;;;;5043991;28;20097;-72
2023/07/13 06:38:20;;;;;;;11.50;10.40;;;;;;;;;;5045225;28;20115;-73
2023/07/13 06:40:46;;;;;;;10.45;9.73;;;;;;;;;;5046497;28;20064;-72
2023/07/13 06:43:12;;;;;;;11.18;10.07;;;;;;;;;;5045226;28;20040;-72
2023/07/13 06:45:49;;;;;;;10.15;9.45;;;;;;;;;;5045936;28;20039;-73
2023/07/13 06:48:16;;;;;;;10.15;9.45;;;;;;;;;;5045820;28;20484;-72
2023/07/13 06:50:42;;;;;;;10.68;9.82;;;;;;;;;;5046473;28;20029;-72
2023/07/13 06:53:09;;;;;;;10.10;9.45;;;;;;;;;;5044405;28;20045;-72
2023/07/13 06:55:34;;;;;;;10.40;9.40;;;;;;;;;;5046104;28;20044;-72
2023/07/13 06:58:00;;;;;;;11.20;9.43;;;;;;;;;;5046088;28;20040;-72
2023/07/13 07:00:26;;;;;;;9.30;8.65;;;;;;;;;;5045929;28;20040;-73
2023/07/13 07:02:51;;;;;;;10.05;9.07;;;;;;;;;;5044655;28;20103;-72
2023/07/13 07:05:17;;;;;;;9.48;8.77;;;;;;;;;;5046424;28;20029;-72
2023/07/13 07:07:43;;;;;;;10.00;8.98;;;;;;;;;;5045918;28;20452;-72
2023/07/13 07:10:08;;;;;;;9.70;8.80;;;;;;;;;;5045957;28;20037;-72
2023/07/13 07:12:34;;;;;;;9.00;8.38;;;;;;;;;;5044643;28;20128;-72
2023/07/13 07:14:59;;;;;;;8.90;8.20;;;;;;;;;;5045849;28;20067;-72
2023/07/13 07:17:26;;;;;;;9.38;8.52;;;;;;;;;;5044548;28;20037;-72
2023/07/13 07:19:53;;;;;;;8.93;8.32;;;;;;;;;;5046130;28;20110;-72
2023/07/13 07:22:20;;;;;;;9.45;8.40;;;;;;;;;;5044715;28;20567;-72
2023/07/13 07:24:46;;;;;;;9.43;8.68;;;;;;;;;;5045683;28;20056;-72
2023/07/13 07:27:11;;;;;;;9.68;8.20;;;;;;;;;;5045897;28;20071;-72
2023/07/13 07:29:37;;;;;;;9.18;8.32;;;;;;;;;;5045364;28;20040;-72
2023/07/13 07:32:03;;;;;;;8.88;8.25;;;;;;;;;;5043931;28;20147;-72
2023/07/13 07:34:30;;;;;;;9.13;7.93;;;;;;;;;;5045649;28;20040;-72
2023/07/13 07:37:00;;;;;;;8.45;7.65;;;;;;;;;;5045489;28;20090;-72
2023/07/13 07:39:26;;;;;;;11.82;8.23;;;;;;;;;;5045370;28;20036;-72
2023/07/13 07:41:51;;;;;;;8.25;7.60;;;;;;;;;;5043267;28;20108;-72
2023/07/13 07:44:17;;;;;;;8.15;7.05;;;;;;;;;;5045595;28;20028;-72
2023/07/13 07:46:42;;;;;;;10.90;8.13;;;;;;;;;;5045260;28;20079;-72
2023/07/13 07:49:08;;;;;;;8.93;8.02;;;;;;;;;;5043610;28;20033;-72
2023/07/13 07:51:33;;;;;;;8.50;7.80;;;;;;;;;;5045242;28;20146;-72
2023/07/13 07:53:59;;;;;;;8.45;7.65;;;;;;;;;;5045104;28;20040;-72
2023/07/13 07:56:25;;;;;;;8.23;7.53;;;;;;;;;;5049636;28;20037;-72
2023/07/13 07:58:51;;;;;;;8.52;7.63;;;;;;;;;;5047562;28;20150;-72
2023/07/13 08:01:16;;;;;;;8.63;7.85;;;;;;;;;;5049366;28;20055;-72
2023/07/13 08:03:42;;;;;;;8.80;7.80;;;;;;;;;;5049522;28;20455;-72
2023/07/13 08:06:08;;;;;;;8.40;7.68;;;;;;;;;;5046479;28;20065;-72
2023/07/13 08:08:34;;;;;;;9.35;8.43;;;;;;;;;;5047724;28;20810;-72
2023/07/13 08:11:04;;;;;;;8.00;7.40;;;;;;;;;;5049035;28;20036;-72
2023/07/13 08:13:30;;;;;;;8.07;7.35;;;;;;;;;;5049208;28;20064;-72
2023/07/13 08:15:55;;;;;;;8.00;7.00;;;;;;;;;;5047642;28;20484;-72
2023/07/13 08:18:21;;;;;;;7.55;6.95;;;;;;;;;;5049071;28;20036;-72
2023/07/13 08:20:46;;;;;;;7.45;6.88;;;;;;;;;;5048770;28;20319;-72
2023/07/13 08:23:12;;;;;;;8.40;7.80;;;;;;;;;;5047898;28;20094;-72
2023/07/13 08:25:38;;;;;;;8.15;7.35;;;;;;;;;;5048811;28;20048;-72
2023/07/13 08:28:04;;;;;;;8.13;7.40;;;;;;;;;;5048620;28;20043;-72
2023/07/13 08:30:29;;;;;;;7.80;7.30;;;;;;;;;;5048456;28;20071;-72
2023/07/13 08:32:55;;;;;;;8.95;7.75;;;;;;;;;;5048473;28;20334;-72
2023/07/13 08:35:21;;;;;;;8.30;7.60;;;;;;;;;;5048309;28;20087;-72
2023/07/13 08:37:46;;;;;;;7.88;7.28;;;;;;;;;;5048309;28;20040;-72
2023/07/13 08:40:13;;;;;;;8.60;7.90;;;;;;;;;;5047093;28;20098;-72
2023/07/13 08:42:41;;;;;;;8.35;7.53;;;;;;;;;;5048344;28;20082;-72
2023/07/13 08:45:31;;;;;;;8.45;7.65;;;;;;;;;;5048516;28;20036;-72
2023/07/13 08:48:13;;;;;;;8.55;7.75;;;;;;;;;;5046185;28;20473;-72
2023/07/13 08:50:54;;;;;;;9.13;6.95;;;;;;;;;;5039386;28;20050;-72
2023/07/13 08:53:22;;;;;;;7.82;7.10;;;;;;;;;;5047146;28;20106;-72
2023/07/13 08:55:49;;;;;;;8.88;7.28;;;;;;;;;;5045783;28;20124;-72
2023/07/13 08:58:17;;;;;;;7.90;7.30;;;;;;;;;;5046258;28;20032;-72
2023/07/13 09:01:01;;;;;;;7.82;7.22;;;;;;;;;;5068555;28;20355;-72
2023/07/13 09:03:36;;;;;;;8.30;7.60;;;;;;;;;;5065748;28;20111;-72
2023/07/13 09:06:03;;;;;;;7.80;7.20;;;;;;;;;;5049942;28;20044;-71
2023/07/13 09:08:41;;;;;;;8.45;7.60;;;;;;;;;;5045630;28;20669;-71
2023/07/13 09:11:16;;;;;;;8.65;7.50;;;;;;;;;;5045196;28;20061;-71
2023/07/13 09:14:32;;;;;;;9.23;8.48;;;;;;;;;;5044481;28;20159;-71
2023/07/13 09:16:58;;;;;;;8.82;7.97;;;;;;;;;;5005179;28;20089;-71
2023/07/13 09:19:28;;;;;;;11.45;8.15;;;;;;;;;;5013392;28;20088;-71
2023/07/13 09:21:56;;;;;;;9.05;8.35;;;;;;;;;;4998974;28;20033;-72
2023/07/13 09:24:38;;;;;;;8.85;8.25;;;;;;;;;;5005979;28;20049;-72
2023/07/13 09:27:18;;;;;;;9.30;8.48;;;;;;;;;;5006985;28;20048;-72
2023/07/13 09:30:00;;;;;;;8.43;7.70;;;;;;;;;;5001840;28;20045;-72
2023/07/13 09:32:27;;;;;;;9.43;8.10;;;;;;;;;;5004020;28;20050;-72
2023/07/13 09:34:54;;;;;;;8.82;8.00;;;;;;;;;;4999153;28;20045;-71
2023/07/13 09:37:23;;;;;;;8.60;7.22;;;;;;;;;;4988166;28;20373;-71
2023/07/13 09:39:49;;;;;;;7.88;7.25;;;;;;;;;;5003883;28;20387;-71
2023/07/13 09:42:17;;;;;;;7.88;7.28;;;;;;;;;;5009033;28;20045;-71
2023/07/13 09:44:53;;;;;;;8.40;7.63;;;;;;;;;;5003092;28;20201;-71
2023/07/13 09:47:27;;;;;;;7.82;7.22;;;;;;;;;;5001463;28;20128;-72
2023/07/13 09:50:05;;;;;;;8.63;7.85;;;;;;;;;;5010449;28;20128;-71
2023/07/13 09:52:48;;;;;;;9.30;8.50;;;;;;;;;;5046320;28;20037;-71
2023/07/13 09:55:25;;;;;;;8.48;7.88;;;;;;;;;;5047302;28;20311;-71
2023/07/13 09:57:52;;;;;;;8.10;7.50;;;;;;;;;;5045226;28;20064;-72
2023/07/13 10:00:25;;;;;;;8.45;7.60;;;;;;;;;;5047516;28;20036;-71
2023/07/13 10:03:06;;;;;;;12.48;7.82;;;;;;;;;;5039888;28;20060;-71
2023/07/13 10:05:43;;;;;;;9.40;8.50;;;;;;;;;;5045749;28;20029;-71
2023/07/13 10:08:27;;;;;;;9.15;8.30;;;;;;;;;;5046610;28;20080;-71
2023/07/13 10:10:57;;;;;;;9.63;8.70;;;;;;;;;;5043133;28;20036;-71
2023/07/13 10:13:40;;;;;;;9.18;8.55;;;;;;;;;;5045574;28;20028;-71
2023/07/13 10:16:07;;;;;;;9.15;8.35;;;;;;;;;;5047099;28;20033;-71
2023/07/13 10:18:51;;;;;;;8.52;7.70;;;;;;;;;;5044897;28;20386;-71
2023/07/13 10:21:20;;;;;;;9.60;8.80;;;;;;;;;;5046940;28;20048;-71
2023/07/13 10:23:58;;;;;;;9.40;8.60;;;;;;;;;;5047171;28;20032;-72
2023/07/13 10:26:30;;;;;;;11.82;9.10;;;;;;;;;;5046904;28;20634;-72
2023/07/13 10:28:59;;;;;;;9.90;8.95;;;;;;;;;;5045483;28;20041;-71
2023/07/13 10:31:25;;;;;;;9.10;8.02;;;;;;;;;;5046546;28;20025;-71
2023/07/13 10:33:51;;;;;;;9.15;8.45;;;;;;;;;;5046766;28;20036;-71
2023/07/13 10:36:40;;;;;;;10.93;7.60;;;;;;;;;;5045200;28;20110;-71
2023/07/13 10:39:06;;;;;;;8.90;8.13;;;;;;;;;;5045113;28;20102;-72
2023/07/13 10:41:38;;;;;;;8.57;7.53;;;;;;;;;;5046186;28;20040;-72
2023/07/13 10:44:04;;;;;;;8.88;8.15;;;;;;;;;;5044818;28;20041;-72
2023/07/13 10:46:30;;;;;;;9.10;8.20;;;;;;;;;;5046410;28;20416;-71
2023/07/13 10:49:02;;;;;;;9.07;8.35;;;;;;;;;;5046331;28;20515;-71
2023/07/13 10:51:29;;;;;;;9.00;8.13;;;;;;;;;;5044995;28;20033;-71
2023/07/13 10:54:17;;;;;;;8.80;8.13;;;;;;;;;;5045283;28;20052;-71
2023/07/13 10:56:43;;;;;;;8.77;8.07;;;;;;;;;;5041482;28;20051;-71
2023/07/13 10:59:09;;;;;;;9.55;8.65;;;;;;;;;;5046482;28;20344;-71
2023/07/13 11:02:04;;;;;;;8.90;8.13;;;;;;;;;;5044156;28;20430;-72
2023/07/13 11:04:48;;;;;;;9.68;8.88;;;;;;;;;;5040874;28;20081;-71
2023/07/13 11:07:27;;;;;;;9.98;8.98;;;;;;;;;;5046214;28;20132;-71
2023/07/13 11:10:04;;;;;;;9.93;9.13;;;;;;;;;;5044609;28;20037;-71
2023/07/13 11:12:52;;;;;;;9.70;8.88;;;;;;;;;;5045947;28;20102;-71
2023/07/13 11:15:33;;;;;;;8.57;7.93;;;;;;;;;;5043896;28;20460;-71
2023/07/13 11:18:03;;;;;;;9.43;8.48;;;;;;;;;;5046004;28;20139;-71
2023/07/13 11:20:32;;;;;;;9.88;8.98;;;;;;;;;;5044220;28;20040;-71
2023/07/13 11:23:13;;;;;;;8.10;7.30;;;;;;;;;;5046277;28;20060;-71
2023/07/13 11:25:39;;;;;;;8.57;7.88;;;;;;;;;;5045896;28;20581;-71
2023/07/13 11:28:07;;;;;;;8.73;7.93;;;;;;;;;;5042508;28;20234;-72
2023/07/13 11:30:40;;;;;;;11.38;8.32;;;;;;;;;;5045369;28;20037;-71
2023/07/13 11:33:24;;;;;;;8.45;7.80;;;;;;;;;;5045906;28;20484;-71
2023/07/13 11:36:12;;;;;;;8.80;8.10;;;;;;;;;;5044477;28;20033;-71
2023/07/13 11:38:40;;;;;;;8.40;7.80;;;;;;;;;;5044290;28;20080;-71
2023/07/13 11:41:29;;;;;;;9.83;8.43;;;;;;;;;;5045807;28;20029;-71
2023/07/13 11:43:56;;;;;;;;;;;;;;;;;;5042621;28;20295;-71
2023/07/13 11:46:24;;;;;;;9.40;8.60;;;;;;;;;;5043762;28;19951;-71
2023/07/13 11:48:51;;;;;;;10.88;8.90;;;;;;;;;;5045728;28;20063;-71
2023/07/13 11:51:27;;;;;;;8.95;8.25;;;;;;;;;;5045724;28;20040;-71
2023/07/13 11:53:56;;;;;;;9.15;8.25;;;;;;;;;;5044407;28;20041;-71
2023/07/13 11:56:23;;;;;;;9.95;9.25;;;;;;;;;;5043918;28;20025;-71
2023/07/13 11:58:52;;;;;;;8.75;8.15;;;;;;;;;;5045049;28;20067;-71
2023/07/13 12:01:31;;;;;;;10.43;9.43;;;;;;;;;;5045731;28;20150;-71
2023/07/13 12:03:57;;;;;;;9.60;8.90;;;;;;;;;;5044407;28;20025;-71
2023/07/13 12:06:28;;;;;;;10.65;9.63;;;;;;;;;;5044386;28;20040;-71
2023/07/13 12:09:03;;;;;;;9.75;9.05;;;;;;;;;;5045113;28;20041;-71
2023/07/13 12:11:29;;;;;;;10.13;9.23;;;;;;;;;;5044860;28;20227;-71
2023/07/13 12:13:55;;;;;;;10.02;9.10;;;;;;;;;;5044649;28;20047;-72
2023/07/13 12:16:32;;;;;;;9.70;8.80;;;;;;;;;;5044138;28;20024;-71
2023/07/13 12:19:00;;;;;;;9.63;8.90;;;;;;;;;;5044950;28;20425;-71
2023/07/13 12:21:31;;;;;;;10.38;9.65;;;;;;;;;;5043748;28;20192;-72
2023/07/13 12:23:57;;;;;;;11.13;9.80;;;;;;;;;;5043785;28;20571;-72
2023/07/13 12:26:22;;;;;;;10.32;9.32;;;;;;;;;;5044084;28;20109;-72
2023/07/13 12:28:54;;;;;;;11.00;9.55;;;;;;;;;;5043568;28;20131;-72
2023/07/13 12:31:29;;;;;;;10.25;9.45;;;;;;;;;;5044901;28;20037;-71
2023/07/13 12:34:00;;;;;;;9.63;8.93;;;;;;;;;;5043911;28;20254;-71
2023/07/13 12:36:29;;;;;;;10.05;9.25;;;;;;;;;;5044716;28;20068;-72
2023/07/13 12:38:54;;;;;;;9.73;8.77;;;;;;;;;;5044654;28;20041;-72
2023/07/13 12:41:20;;;;;;;10.57;9.40;;;;;;;;;;5047835;28;20043;-71
2023/07/13 12:43:46;;;;;;;10.32;9.57;;;;;;;;;;5047157;28;20071;-72
2023/07/13 12:46:20;;;;;;;10.63;9.57;;;;;;;;;;5048753;28;20040;-72
2023/07/13 12:48:58;;;;;;;9.05;8.45;;;;;;;;;;5048396;28;20136;-71
2023/07/13 12:51:28;;;;;;;10.00;9.32;;;;;;;;;;5047223;28;20037;-71
2023/07/13 12:54:05;;;;;;;9.55;8.90;;;;;;;;;;5048624;28;20411;-71
2023/07/13 12:56:32;;;;;;;10.50;9.70;;;;;;;;;;5046642;28;20090;-71
2023/07/13 12:59:05;;;;;;;10.70;9.85;;;;;;;;;;5048011;28;20052;-72
2023/07/13 13:01:37;;;;;;;10.20;9.50;;;;;;;;;;5048204;28;20579;-72
2023/07/13 13:04:08;;;;;;;10.40;9.45;;;;;;;;;;5048660;28;20041;-72
2023/07/13 13:06:36;;;;;;;10.25;9.32;;;;;;;;;;5045639;28;20504;-72
2023/07/13 13:09:03;;;;;;;10.80;9.20;;;;;;;;;;5048172;28;20037;-72
2023/07/13 13:11:31;;;;;;;10.20;9.30;;;;;;;;;;5048209;28;20029;-72
2023/07/13 13:13:57;;;;;;;9.88;9.18;;;;;;;;;;5047370;28;20088;-72
2023/07/13 13:16:26;;;;;;;10.23;9.25;;;;;;;;;;5047086;28;20287;-72
2023/07/13 13:18:53;;;;;;;10.25;9.40;;;;;;;;;;5048192;28;20032;-72
2023/07/13 13:21:21;;;;;;;10.10;9.20;;;;;;;;;;5048359;28;20523;-72
2023/07/13 13:23:46;;;;;;;9.82;9.20;;;;;;;;;;5046777;28;20488;-71
2023/07/13 13:26:15;;;;;;;10.10;9.40;;;;;;;;;;5048204;28;20029;-72
2023/07/13 13:28:42;;;;;;;10.32;9.50;;;;;;;;;;5048346;28;20455;-71
2023/07/13 13:31:12;;;;;;;10.48;9.75;;;;;;;;;;5058068;28;20033;-72
2023/07/13 13:33:43;;;;;;;10.60;9.70;;;;;;;;;;5066266;28;20048;-71
2023/07/13 13:36:22;;;;;;;15.27;9.82;;;;;;;;;;5059047;28;20393;-71
2023/07/13 13:38:49;;;;;;;10.00;9.10;;;;;;;;;;5046522;28;20051;-72
2023/07/13 13:41:15;;;;;;;10.15;9.27;;;;;;;;;;5044131;28;20126;-71
2023/07/13 13:43:42;;;;;;;11.10;10.00;;;;;;;;;;5047861;28;20036;-72
2023/07/13 13:46:20;;;;;;;10.27;9.48;;;;;;;;;;5047004;28;20303;-72
2023/07/13 13:48:46;;;;;;;10.23;9.52;;;;;;;;;;5042497;28;20037;-72
2023/07/13 13:51:21;;;;;;;10.02;9.13;;;;;;;;;;5046941;28;20048;-72
2023/07/13 13:53:47;;;;;;;10.77;9.80;;;;;;;;;;5047645;28;20029;-72
2023/07/13 13:56:14;;;;;;;9.93;9.13;;;;;;;;;;5047506;28;20067;-72
2023/07/13 13:58:40;;;;;;;9.93;9.32;;;;;;;;;;5045335;28;20153;-72
2023/07/13 14:01:14;;;;;;;10.80;9.80;;;;;;;;;;5046974;28;20618;-72
2023/07/13 14:03:39;;;;;;;10.55;9.73;;;;;;;;;;5043414;28;20028;-72
2023/07/13 14:06:05;;;;;;;10.90;9.70;;;;;;;;;;5045529;28;20032;-72
2023/07/13 14:08:30;;;;;;;10.27;9.43;;;;;;;;;;5046747;28;20037;-72
2023/07/13 14:10:58;;;;;;;9.93;9.13;;;;;;;;;;5047078;28;20400;-72
2023/07/13 14:13:32;;;;;;;10.35;9.50;;;;;;;;;;5047215;28;20074;-72
2023/07/13 14:15:59;;;;;;;10.30;9.60;;;;;;;;;;5044668;28;20048;-72
2023/07/13 14:18:25;;;;;;;10.65;9.52;;;;;;;;;;5046755;28;20538;-72
2023/07/13 14:20:52;;;;;;;10.95;10.05;;;;;;;;;;5047583;28;20158;-72
2023/07/13 14:23:18;;;;;;;10.35;9.38;;;;;;;;;;5045150;28;20037;-72
2023/07/13 14:25:47;;;;;;;10.77;9.88;;;;;;;;;;5047220;28;20111;-72
2023/07/13 14:28:21;;;;;;;10.93;10.02;;;;;;;;;;5045521;28;20725;-72
2023/07/13 14:30:47;;;;;;;10.63;9.63;;;;;;;;;;5045502;28;20538;-72
2023/07/13 14:33:13;;;;;;;10.15;9.18;;;;;;;;;;5045240;28;20029;-72
2023/07/13 14:35:39;;;;;;;10.00;9.30;;;;;;;;;;5047110;28;20032;-72
2023/07/13 14:38:07;;;;;;;13.38;9.35;;;;;;;;;;5046822;28;20444;-72
2023/07/13 14:40:33;;;;;;;9.93;9.32;;;;;;;;;;5046961;28;20033;-72
2023/07/13 14:42:58;;;;;;;10.02;9.10;;;;;;;;;;5044739;28;20037;-72
2023/07/13 14:45:25;;;;;;;9.80;9.20;;;;;;;;;;5046600;28;20025;-72
2023/07/13 14:47:51;;;;;;;9.68;8.93;;;;;;;;;;5045318;28;20396;-72
2023/07/13 14:50:26;;;;;;;9.65;9.00;;;;;;;;;;5044547;28;20479;-72
2023/07/13 14:52:52;;;;;;;9.98;9.23;;;;;;;;;;5046693;28;20044;-71
2023/07/13 14:55:18;;;;;;;10.77;9.40;;;;;;;;;;5046309;28;20103;-72
2023/07/13 14:57:46;;;;;;;10.02;9.32;;;;;;;;;;5046310;28;20481;-72
2023/07/13 15:00:15;;;;;;;10.27;9.57;;;;;;;;;;5044901;28;20052;-71
2023/07/13 15:02:47;;;;;;;10.20;9.00;;;;;;;;;;5046509;28;20079;-71
2023/07/13 15:05:18;;;;;;;9.65;9.00;;;;;;;;;;5046332;28;20039;-71
2023/07/13 15:07:44;;;;;;;9.73;8.90;;;;;;;;;;5044488;28;20084;-72
2023/07/13 15:10:20;;;;;;;9.60;8.77;;;;;;;;;;5046379;28;20072;-72
2023/07/13 15:12:46;;;;;;;9.18;8.48;;;;;;;;;;5043755;28;20345;-72
2023/07/13 15:15:12;;;;;;;9.95;9.05;;;;;;;;;;5046033;28;20090;-72
2023/07/13 15:17:40;;;;;;;9.23;8.50;;;;;;;;;;5046358;28;20079;-72
2023/07/13 15:20:12;;;;;;;10.60;9.70;;;;;;;;;;5045465;28;20493;-72
2023/07/13 15:22:38;;;;;;;10.52;9.70;;;;;;;;;;5044149;28;20299;-72
2023/07/13 15:25:11;;;;;;;10.50;9.40;;;;;;;;;;5046158;28;20159;-72
2023/07/13 15:27:38;;;;;;;10.43;9.60;;;;;;;;;;5046145;28;20036;-72
2023/07/13 15:30:03;;;;;;;10.15;9.45;;;;;;;;;;5045961;28;20094;-72